Time;durP1;ratioP1;P1;durP2;ratioP2;P2;SDS_P1;SDS_P2;PMS_P1;PMS_P2;Temp;Humidity;BMP_temperature;BMP_pressure;BME280_temperature;BME280_humidity;BME280_pressure;Samples;Min_cycle;Max_cycle;Signal;HPM_P1;HPM_P2
2022/05/28 00:01:31;;;;;;;10.13;3.03;;;16.80;79.30;;;15.92;64.22;100981.66;5035337;28;20387;-77
2022/05/28 00:03:59;;;;;;;4.18;1.95;;;16.00;78.90;;;15.90;65.12;100987.03;5026339;28;20056;-77
2022/05/28 00:06:30;;;;;;;7.18;3.10;;;15.90;79.20;;;15.96;65.10;100980.63;5043120;28;20047;-77
2022/05/28 00:08:59;;;;;;;11.27;2.83;;;15.90;79.40;;;15.84;64.63;100982.78;5026186;28;20084;-77
2022/05/28 00:11:32;;;;;;;10.00;2.97;;;17.20;79.80;;;15.81;64.79;100990.84;5027456;28;20140;-77
2022/05/28 00:14:00;;;;;;;9.45;3.13;;;15.90;79.00;;;15.77;64.64;100983.06;4995116;28;20092;-77
2022/05/28 00:16:27;;;;;;;7.15;3.78;;;15.80;79.10;;;15.82;64.94;100984.63;5012144;28;20072;-77
2022/05/28 00:18:55;;;;;;;10.27;2.70;;;15.80;79.30;;;15.70;65.41;100974.47;5011063;28;20125;-77
2022/05/28 00:21:24;;;;;;;7.47;2.67;;;15.80;79.40;;;15.65;65.88;100984.34;4994663;28;20072;-77
2022/05/28 00:23:51;;;;;;;10.30;2.60;;;15.70;79.40;;;15.49;66.10;100979.59;5026198;28;20060;-77
2022/05/28 00:26:19;;;;;;;8.65;3.30;;;15.70;79.20;;;15.48;65.94;100984.97;5029223;28;20334;-77
2022/05/28 00:28:46;;;;;;;9.65;3.03;;;15.60;79.20;;;15.45;66.15;100978.84;5027702;28;20045;-77
2022/05/28 00:31:14;;;;;;;7.90;2.70;;;15.60;79.40;;;15.42;66.56;100981.59;5008351;28;20055;-77
2022/05/28 00:33:41;;;;;;;9.48;3.90;;;15.50;79.90;;;15.44;66.62;100981.53;5027038;28;20037;-77
2022/05/28 00:36:10;;;;;;;9.55;2.78;;;15.40;79.60;;;15.46;67.67;100982.34;5041294;28;20047;-77
2022/05/28 00:38:42;;;;;;;12.25;3.00;;;16.50;80.70;;;15.29;69.40;100988.22;5026321;28;20059;-77
2022/05/28 00:41:10;;;;;;;10.45;3.17;;;15.30;80.10;;;15.27;68.91;100988.28;5026356;28;20050;-77
2022/05/28 00:43:41;;;;;;;11.32;3.35;;;17.10;81.20;;;15.22;70.34;100992.00;5026918;28;20554;-77
2022/05/28 00:46:16;;;;;;;9.32;2.30;;;16.70;81.50;;;15.22;70.19;100992.00;5026643;28;20054;-77
2022/05/28 00:48:48;;;;;;;10.48;2.60;;;15.20;80.80;;;15.10;71.10;100990.66;5009811;28;20359;-77
2022/05/28 00:51:27;;;;;;;8.40;2.78;;;15.20;80.80;;;14.92;72.38;100994.75;5025765;28;20048;-77
2022/05/28 00:54:02;;;;;;;8.23;2.42;;;15.10;80.80;;;14.94;72.37;100999.09;5025691;28;20041;-77
2022/05/28 00:56:29;;;;;;;9.40;3.15;;;16.10;81.70;;;14.91;71.40;100991.25;5025751;28;20116;-77
2022/05/28 00:58:58;;;;;;;7.97;2.75;;;15.00;80.90;;;14.73;72.69;100992.69;5024608;28;20049;-77
2022/05/28 01:01:30;;;;;;;13.88;4.75;;;14.90;81.00;;;14.77;71.88;100999.63;5025066;28;20053;-78
2022/05/28 01:04:34;;;;;;;7.80;2.70;;;14.80;81.00;;;14.67;73.95;100992.84;5025276;28;20052;-77
2022/05/28 01:07:51;;;;;;;11.38;2.97;;;14.80;81.30;;;14.63;74.75;101000.03;5041631;28;20049;-77
2022/05/28 01:10:37;;;;;;;7.32;2.85;;;14.70;81.60;;;14.45;75.90;100994.38;5027472;28;20037;-77
2022/05/28 01:13:16;;;;;;;7.63;2.58;;;14.60;81.80;;;14.50;76.70;100991.56;5042079;28;20045;-77
2022/05/28 01:16:01;;;;;;;6.53;3.00;;;14.50;82.30;;;14.32;77.98;100988.56;5025913;28;20064;-79
2022/05/28 01:19:19;;;;;;;9.35;2.67;;;15.50;82.70;;;14.21;80.18;100993.34;5009338;28;20514;-77
2022/05/28 01:21:57;;;;;;;8.38;2.45;;;14.40;82.60;;;14.13;80.02;100984.75;5025285;28;20084;-77
2022/05/28 01:24:54;;;;;;;10.82;3.30;;;14.40;82.80;;;14.07;82.60;100987.56;5025287;28;20041;-77
2022/05/28 01:27:55;;;;;;;11.38;2.88;;;14.20;82.80;;;13.93;84.36;100980.00;5026335;28;20053;-77
2022/05/28 01:30:22;;;;;;;8.68;2.30;;;14.10;83.70;;;13.80;85.16;100982.16;5022945;28;20152;-77
2022/05/28 01:32:54;;;;;;;9.00;2.47;;;14.00;83.80;;;13.81;85.46;100982.09;5005464;28;20419;-77
2022/05/28 01:35:23;;;;;;;6.68;2.75;;;14.80;84.60;;;13.76;86.17;100981.34;4989338;28;20690;-77
2022/05/28 01:37:52;;;;;;;7.18;3.30;;;14.80;85.00;;;13.67;85.62;100977.19;5005398;28;20042;-77
2022/05/28 01:40:22;;;;;;;8.10;2.55;;;15.90;85.60;;;13.61;87.83;100983.50;5005064;28;20034;-77
2022/05/28 01:42:52;;;;;;;;;;;14.80;85.40;;;13.52;88.91;100986.41;5006270;28;20046;-77
2022/05/28 01:45:26;;;;;;;9.68;2.28;;;13.70;85.10;;;13.44;90.44;100985.72;5021647;28;19964;-77
2022/05/28 01:47:58;;;;;;;8.77;2.55;;;13.70;85.50;;;13.32;92.80;100979.81;4989729;28;20053;-77
2022/05/28 01:50:28;;;;;;;14.63;2.78;;;14.00;86.20;;;13.32;93.86;100981.59;5007620;28;20056;-77
2022/05/28 01:52:56;;;;;;;5.32;2.55;;;13.50;86.30;;;13.24;93.95;100989.72;4993934;28;20046;-78
2022/05/28 01:55:26;;;;;;;14.27;2.67;;;13.40;86.50;;;13.25;95.20;100986.19;5009260;28;20053;-78
2022/05/28 01:57:53;;;;;;;7.80;2.22;;;15.80;88.70;;;13.23;93.98;100990.63;4993633;28;20054;-77
2022/05/28 02:00:20;;;;;;;11.25;3.03;;;13.60;87.40;;;13.32;92.98;100989.53;4993234;28;20099;-77
2022/05/28 02:02:51;;;;;;;8.18;2.60;;;13.40;87.50;;;13.16;94.94;100983.75;5027478;28;20137;-77
2022/05/28 02:05:18;;;;;;;9.43;3.00;;;13.40;87.50;;;13.22;94.39;100988.03;4993958;28;20050;-77
2022/05/28 02:07:45;;;;;;;7.65;2.35;;;13.30;87.80;;;13.13;93.90;100984.72;5010162;28;20072;-77
2022/05/28 02:10:17;;;;;;;9.13;2.85;;;13.30;87.80;;;13.14;93.41;100980.28;5008702;28;20148;-77
2022/05/28 02:13:23;;;;;;;6.63;2.30;;;13.20;87.60;;;13.05;93.21;100984.03;5009751;28;20045;-77
2022/05/28 02:16:06;;;;;;;7.10;2.78;;;13.20;87.70;;;13.01;94.79;100982.38;4992823;28;20053;-76
2022/05/28 02:18:43;;;;;;;8.68;2.70;;;13.20;88.00;;;13.11;92.67;100977.72;5024547;28;20038;-77
2022/05/28 02:21:22;;;;;;;7.30;2.25;;;14.60;88.80;;;12.98;92.55;100969.25;5024392;28;20073;-77
2022/05/28 02:24:11;;;;;;;10.02;2.53;;;13.10;87.60;;;13.04;91.37;100974.38;5009282;28;20054;-77
2022/05/28 02:26:50;;;;;;;7.80;2.22;;;13.10;87.80;;;12.99;91.27;100969.19;5010589;28;20048;-77
2022/05/28 02:29:18;;;;;;;11.93;3.22;;;13.10;87.80;;;12.97;91.46;100960.44;5024439;28;20792;-77
2022/05/28 02:31:48;;;;;;;7.75;2.58;;;13.50;88.00;;;12.93;91.40;100969.34;5040095;28;20104;-77
2022/05/28 02:34:18;;;;;;;9.90;2.40;;;13.10;87.70;;;12.84;91.93;100970.44;5047074;28;20049;-77
2022/05/28 02:36:45;;;;;;;7.80;2.13;;;13.00;87.70;;;12.77;91.43;100974.13;5029785;28;20049;-77
2022/05/28 02:39:12;;;;;;;6.90;1.98;;;12.90;87.60;;;12.68;92.42;100959.34;5045424;28;20049;-77
2022/05/28 02:41:39;;;;;;;7.25;2.25;;;13.90;88.50;;;12.76;91.70;100967.09;5046137;28;20053;-77
2022/05/28 02:44:06;;;;;;;7.57;2.67;;;14.50;89.00;;;12.53;95.76;100965.88;5028909;28;20104;-77
2022/05/28 02:46:35;;;;;;;12.13;2.60;;;15.10;89.90;;;12.45;97.26;100975.72;5045598;28;20056;-77
2022/05/28 02:49:02;;;;;;;4.80;1.98;;;12.70;88.80;;;12.29;99.30;100964.66;5044632;28;20041;-77
2022/05/28 02:51:32;;;;;;;7.18;2.53;;;12.60;89.20;;;12.13;99.56;100967.63;5028295;28;20103;-77
2022/05/28 02:53:59;;;;;;;11.05;3.00;;;12.50;89.70;;;12.19;99.45;100972.75;5029682;28;20053;-77
2022/05/28 02:56:26;;;;;;;9.43;3.13;;;12.40;89.30;;;12.15;100.00;100976.34;5044730;28;20053;-77
2022/05/28 02:58:53;;;;;;;8.55;2.90;;;12.40;90.00;;;12.18;99.86;100975.44;5027462;28;20068;-77
2022/05/28 03:01:33;;;;;;;13.40;3.42;;;13.20;90.40;;;12.19;99.86;100975.38;5043279;28;20053;-77
2022/05/28 03:04:03;;;;;;;7.15;2.63;;;12.30;90.30;;;12.07;100.00;100974.78;4995606;28;20054;-78
2022/05/28 03:06:30;;;;;;;4.78;2.13;;;12.30;90.20;;;11.84;100.00;100971.69;5027893;28;20037;-78
2022/05/28 03:08:57;;;;;;;13.73;3.58;;;13.00;90.40;;;11.90;100.00;100983.88;5026838;28;20479;-77
2022/05/28 03:11:25;;;;;;;7.38;2.17;;;12.10;90.40;;;11.84;100.00;100979.59;5029598;28;20042;-77
2022/05/28 03:13:52;;;;;;;5.90;1.95;;;12.20;90.40;;;11.62;100.00;100981.75;5031146;28;20042;-77
2022/05/28 03:16:23;;;;;;;10.50;2.40;;;12.60;90.50;;;11.58;100.00;100983.56;5014245;28;20420;-77
2022/05/28 03:18:50;;;;;;;7.25;2.33;;;11.90;90.50;;;11.54;100.00;100978.38;4996569;28;20088;-77
2022/05/28 03:21:17;;;;;;;5.45;2.25;;;11.90;90.60;;;11.57;100.00;100991.53;5010915;28;20499;-77
2022/05/28 03:23:53;;;;;;;14.35;3.50;;;11.80;90.70;;;11.46;100.00;100984.66;4993090;28;20499;-77
2022/05/28 03:26:26;;;;;;;8.68;2.45;;;13.80;91.40;;;11.48;100.00;100987.28;5010489;28;20065;-77
2022/05/28 03:28:56;;;;;;;7.03;2.22;;;12.70;91.10;;;11.42;100.00;100974.22;4993217;28;20446;-77
2022/05/28 03:31:27;;;;;;;7.30;2.67;;;11.70;90.90;;;11.30;100.00;100991.97;5019784;28;20042;-77
2022/05/28 03:33:55;;;;;;;9.27;2.47;;;11.60;90.90;;;11.23;100.00;100987.72;5045648;28;20052;-77
2022/05/28 03:36:23;;;;;;;9.68;2.45;;;11.60;91.10;;;10.96;100.00;100992.50;5030225;28;20055;-77
2022/05/28 03:38:51;;;;;;;10.02;2.80;;;11.50;91.80;;;10.67;100.00;100991.19;5044442;28;20057;-77
2022/05/28 03:41:19;;;;;;;7.50;2.30;;;11.40;92.30;;;10.78;100.00;100999.81;5044432;28;20045;-77
2022/05/28 03:43:46;;;;;;;7.10;2.35;;;11.30;92.50;;;10.78;100.00;100998.94;5044123;28;20045;-77
2022/05/28 03:46:27;;;;;;;5.35;2.17;;;11.20;93.00;;;10.75;100.00;101002.50;5028149;28;20049;-77
2022/05/28 03:48:59;;;;;;;7.78;2.38;;;11.10;93.50;;;10.69;100.00;101005.19;5027560;28;20564;-77
2022/05/28 03:51:26;;;;;;;8.13;2.88;;;11.00;93.60;;;10.51;100.00;101003.72;5028906;28;20049;-76
2022/05/28 03:53:53;;;;;;;6.18;2.67;;;11.00;93.90;;;10.48;100.00;101001.13;5028180;28;20061;-77
2022/05/28 03:56:22;;;;;;;5.85;1.85;;;10.90;94.10;;;10.19;100.00;101000.56;5028293;28;20049;-77
2022/05/28 03:58:50;;;;;;;6.35;2.00;;;11.60;94.00;;;10.22;100.00;101002.28;5027482;28;20045;-77
2022/05/28 04:01:18;;;;;;;6.68;2.13;;;10.80;94.00;;;10.31;100.00;101004.81;5026127;28;20072;-77
2022/05/28 04:03:45;;;;;;;4.93;2.28;;;10.70;94.40;;;10.25;100.00;101012.75;5028589;28;20042;-77
2022/05/28 04:06:12;;;;;;;5.93;2.22;;;10.70;94.80;;;10.43;100.00;101019.59;5028931;28;20060;-77
2022/05/28 04:08:41;;;;;;;11.05;3.28;;;11.10;94.90;;;10.38;100.00;101017.88;5029738;28;20046;-77
2022/05/28 04:11:08;;;;;;;8.43;2.95;;;10.70;95.20;;;10.43;100.00;101021.34;5028681;28;20042;-77
2022/05/28 04:13:35;;;;;;;12.13;3.05;;;13.50;96.40;;;10.39;100.00;101015.25;5012123;28;20055;-77
2022/05/28 04:16:03;;;;;;;10.50;2.53;;;10.60;95.40;;;10.53;100.00;101014.19;4996607;28;20049;-77
2022/05/28 04:18:30;;;;;;;6.68;2.13;;;12.30;95.90;;;10.57;100.00;101018.53;5029126;28;20050;-77
2022/05/28 04:20:57;;;;;;;5.97;2.53;;;10.70;95.70;;;10.72;100.00;101020.06;5028265;28;20045;-77
2022/05/28 04:23:24;;;;;;;9.10;2.92;;;10.80;95.70;;;10.71;100.00;101024.50;5028984;28;20498;-78
2022/05/28 04:25:51;;;;;;;13.52;2.75;;;12.40;96.10;;;10.86;100.00;101015.50;5012134;28;20140;-78
2022/05/28 04:28:19;;;;;;;10.70;4.20;;;12.30;96.00;;;10.96;100.00;101024.09;5029037;28;20060;-79
2022/05/28 04:30:46;;;;;;;11.95;6.72;;;11.00;95.50;;;11.02;100.00;101029.31;5030726;28;20030;-78
2022/05/28 04:33:13;;;;;;;17.08;9.48;;;12.60;95.60;;;11.10;100.00;101033.56;5031979;28;20045;-78
2022/05/28 04:35:40;;;;;;;18.80;10.27;;;11.10;94.90;;;11.12;100.00;101027.41;5028703;28;20064;-77
2022/05/28 04:38:07;;;;;;;14.98;8.02;;;11.20;94.90;;;11.18;100.00;101026.44;5029417;28;20040;-77
2022/05/28 04:40:34;;;;;;;17.73;7.72;;;12.50;95.60;;;11.26;100.00;101037.69;5043412;28;20052;-77
2022/05/28 04:43:01;;;;;;;14.05;7.85;;;12.40;95.60;;;11.24;100.00;101036.84;5026822;28;20395;-77
2022/05/28 04:45:28;;;;;;;17.52;7.65;;;11.30;95.40;;;11.32;100.00;101042.88;5026888;28;20049;-77
2022/05/28 04:47:55;;;;;;;9.32;6.05;;;12.60;95.50;;;11.32;100.00;101039.38;5043612;28;20048;-77
2022/05/28 04:50:23;;;;;;;11.73;4.72;;;11.90;95.40;;;11.31;100.00;101035.84;5026454;28;20044;-77
2022/05/28 04:52:50;;;;;;;15.40;6.22;;;11.40;95.40;;;11.39;100.00;101045.41;5010619;28;20057;-77
2022/05/28 04:55:17;;;;;;;11.60;6.28;;;11.50;95.80;;;11.31;100.00;101037.63;5027859;28;20406;-77
2022/05/28 04:57:44;;;;;;;15.88;6.32;;;11.50;95.90;;;11.39;100.00;101032.22;5042715;28;20060;-77
2022/05/28 05:00:18;;;;;;;11.98;6.05;;;11.50;95.50;;;11.42;100.00;101035.69;5029154;28;20113;-78
2022/05/28 05:02:45;;;;;;;15.93;7.30;;;11.60;94.90;;;11.52;100.00;101030.25;5039210;28;20114;-77
2022/05/28 05:05:12;;;;;;;16.23;10.07;;;13.80;95.50;;;11.56;100.00;101032.81;5034819;28;20048;-77
2022/05/28 05:07:39;;;;;;;22.45;11.88;;;11.70;94.80;;;11.66;100.00;101028.25;5034560;28;20051;-78
2022/05/28 05:10:07;;;;;;;24.05;13.30;;;11.70;94.70;;;11.69;100.00;101020.28;5047576;28;20046;-78
2022/05/28 05:12:34;;;;;;;18.67;10.38;;;11.70;94.60;;;11.75;100.00;101033.34;5048583;28;20060;-78
2022/05/28 05:15:05;;;;;;;18.87;10.13;;;11.80;94.50;;;11.80;100.00;101038.56;5031524;28;20522;-77
2022/05/28 05:17:31;;;;;;;19.27;8.60;;;11.80;94.50;;;11.78;100.00;101032.41;5032224;28;20045;-78
2022/05/28 05:19:58;;;;;;;15.40;6.80;;;12.20;94.50;;;11.83;100.00;101021.78;5031360;28;20046;-78
2022/05/28 05:22:25;;;;;;;16.75;5.80;;;13.00;94.80;;;11.87;100.00;101029.63;5032390;28;20676;-77
2022/05/28 05:24:53;;;;;;;13.32;6.07;;;11.90;94.50;;;11.96;100.00;101036.47;5032760;28;20054;-77
2022/05/28 05:27:20;;;;;;;14.43;5.45;;;12.00;94.50;;;12.00;100.00;101037.31;5035393;28;20445;-78
2022/05/28 05:29:47;;;;;;;11.05;5.25;;;13.40;94.80;;;12.05;100.00;101039.00;5034703;28;20051;-77
2022/05/28 05:32:14;;;;;;;12.07;4.95;;;12.10;94.40;;;12.07;100.00;101038.09;5031495;28;20053;-78
2022/05/28 05:34:44;;;;;;;8.60;4.22;;;12.10;94.30;;;12.16;100.00;101043.16;5035338;28;20049;-78
2022/05/28 05:37:12;;;;;;;10.95;3.80;;;12.20;94.40;;;12.23;100.00;101036.88;5035670;28;20049;-77
2022/05/28 05:39:40;;;;;;;12.23;3.42;;;12.20;94.30;;;12.30;100.00;101043.75;5034752;28;20053;-78
2022/05/28 05:42:08;;;;;;;9.75;3.53;;;12.30;94.50;;;12.38;100.00;101048.03;5035109;28;20152;-78
2022/05/28 05:44:35;;;;;;;6.03;2.58;;;12.30;94.00;;;12.41;100.00;101051.47;5035214;28;20049;-78
2022/05/28 05:47:03;;;;;;;5.40;2.13;;;12.40;93.70;;;12.45;100.00;101045.22;5035323;28;20049;-77
2022/05/28 05:49:30;;;;;;;9.70;2.55;;;12.50;93.30;;;12.57;100.00;101045.88;5034328;28;20578;-78
2022/05/28 05:51:57;;;;;;;12.48;4.00;;;12.60;93.00;;;12.61;100.00;101044.91;5035574;28;20050;-78
2022/05/28 05:54:25;;;;;;;7.32;2.20;;;12.60;92.70;;;12.67;100.00;101047.41;5035549;28;20052;-78
2022/05/28 05:56:53;;;;;;;8.75;2.00;;;12.70;92.50;;;12.73;100.00;101042.00;5016878;28;20608;-78
2022/05/28 05:59:22;;;;;;;9.88;2.80;;;12.70;92.60;;;12.86;100.00;101041.69;5016739;28;20087;-78
2022/05/28 06:01:49;;;;;;;5.88;2.00;;;12.80;92.60;;;12.89;99.78;101052.22;5035100;28;20469;-77
2022/05/28 06:04:16;;;;;;;10.23;2.55;;;12.80;92.30;;;12.94;98.77;101052.97;5016646;28;20105;-77
2022/05/28 06:06:43;;;;;;;4.65;1.95;;;12.90;92.10;;;13.01;99.00;101048.41;5017186;28;20049;-78
2022/05/28 06:09:11;;;;;;;7.65;2.58;;;13.00;92.20;;;13.05;91.45;101048.31;4998822;28;20076;-78
2022/05/28 06:11:38;;;;;;;9.63;2.55;;;14.50;91.70;;;13.12;88.12;101041.13;5031767;28;20046;-78
2022/05/28 06:14:05;;;;;;;5.60;1.83;;;13.10;91.00;;;13.18;83.15;101048.00;5013105;28;20700;-78
2022/05/28 06:16:32;;;;;;;8.85;2.13;;;13.20;90.40;;;13.23;85.95;101040.84;5028832;28;20122;-79
2022/05/28 06:19:01;;;;;;;6.72;2.58;;;13.20;90.70;;;13.31;86.14;101043.31;5028339;28;20053;-78
2022/05/28 06:21:28;;;;;;;8.93;2.63;;;13.20;90.90;;;13.32;83.35;101042.41;5029992;28;20396;-77
2022/05/28 06:23:55;;;;;;;11.88;2.75;;;13.30;90.60;;;13.40;85.38;101036.91;5028260;28;20140;-78
2022/05/28 06:26:22;;;;;;;8.20;2.42;;;13.40;90.60;;;13.46;84.02;101042.06;5012383;28;20060;-79
2022/05/28 06:28:49;;;;;;;8.85;2.50;;;13.40;90.40;;;13.53;81.12;101040.13;4995447;28;20045;-80
2022/05/28 06:31:16;;;;;;;8.65;2.22;;;13.40;90.20;;;13.61;79.54;101038.19;5028356;28;20050;-78
2022/05/28 06:33:44;;;;;;;8.15;1.80;;;13.50;90.10;;;13.61;76.97;101046.97;5028066;28;20148;-78
2022/05/28 06:36:13;;;;;;;6.00;2.60;;;13.60;89.40;;;13.66;78.63;101038.03;5028584;28;20661;-79
2022/05/28 06:38:41;;;;;;;7.20;2.45;;;13.60;89.70;;;13.79;82.14;101039.44;5028363;28;20104;-78
2022/05/28 06:41:09;;;;;;;5.10;1.95;;;13.70;90.20;;;13.79;78.12;101044.75;5027906;28;20096;-77
2022/05/28 06:43:36;;;;;;;7.78;2.00;;;13.70;89.20;;;13.83;72.72;101041.13;5027666;28;20044;-78
2022/05/28 06:46:06;;;;;;;9.57;2.55;;;13.90;88.20;;;13.89;73.38;101038.31;5012046;28;20129;-78
2022/05/28 06:48:35;;;;;;;;;;;14.20;87.80;;;13.97;76.67;101045.16;5029930;28;20037;-77
2022/05/28 06:51:05;;;;;;;10.20;2.13;;;13.90;88.50;;;14.07;76.68;101040.50;5027699;28;19936;-76
2022/05/28 06:53:42;;;;;;;5.35;1.90;;;14.20;88.60;;;15.57;100.00;101035.91;5011253;28;20075;-77
2022/05/28 06:56:11;;;;;;;6.97;1.90;;;14.50;95.90;;;15.65;100.00;101029.44;5030305;28;20060;-78
2022/05/28 06:58:39;;;;;;;5.28;1.60;;;15.00;93.00;;;16.45;100.00;101023.06;5046737;28;20121;-79
2022/05/28 07:01:07;;;;;;;4.90;1.30;;;15.50;95.40;;;16.82;98.36;101020.75;5014248;28;20045;-79
2022/05/28 07:03:36;;;;;;;4.65;1.70;;;16.00;93.10;;;16.85;75.92;101025.94;5010749;28;20046;-77
2022/05/28 07:06:03;;;;;;;4.32;1.90;;;16.40;90.90;;;16.53;61.38;101023.63;5002023;28;20050;-78
2022/05/28 07:08:30;;;;;;;7.13;2.25;;;16.50;85.10;;;15.99;57.66;101029.16;5008427;28;20049;-79
2022/05/28 07:11:02;;;;;;;6.40;1.80;;;16.30;81.50;;;15.86;58.04;101022.53;5007461;28;20061;-78
2022/05/28 07:13:47;;;;;;;6.67;1.83;;;16.10;81.70;;;15.69;58.46;101023.13;5010597;28;20030;-78
2022/05/28 07:16:14;;;;;;;5.70;1.70;;;15.90;81.00;;;15.54;57.59;101025.41;5007915;28;20280;-77
2022/05/28 07:18:42;;;;;;;5.82;1.80;;;15.80;80.20;;;15.46;59.00;101024.78;5009310;28;20042;-76
2022/05/28 07:21:10;;;;;;;7.15;2.30;;;15.60;80.80;;;15.48;58.31;101022.94;5010648;28;20092;-76
2022/05/28 07:23:38;;;;;;;4.90;1.55;;;15.50;80.40;;;15.52;59.47;101019.25;5021548;28;20043;-78
2022/05/28 07:26:17;;;;;;;5.93;2.13;;;15.50;81.00;;;15.58;61.82;101020.84;5020988;28;20095;-77
2022/05/28 07:28:46;;;;;;;;;;;15.50;81.40;;;15.85;67.24;101020.78;5008690;28;20475;-77
2022/05/28 07:31:20;;;;;;;4.72;1.73;;;15.60;84.30;;;16.43;97.87;101025.75;5013650;28;19998;-77
2022/05/28 07:33:49;;;;;;;4.03;1.88;;;15.80;91.20;;;16.96;72.73;101012.22;5031636;28;20049;-77
2022/05/28 07:36:21;;;;;;;4.70;1.70;;;16.40;88.40;;;16.37;59.58;101011.84;5010349;28;20033;-78
2022/05/28 07:38:48;;;;;;;5.40;1.90;;;16.40;81.30;;;16.26;58.07;101012.25;5025005;28;20053;-77
2022/05/28 07:41:21;;;;;;;3.80;1.42;;;16.30;80.50;;;16.52;58.12;101013.06;5029062;28;20076;-77
2022/05/28 07:43:53;;;;;;;8.32;2.22;;;16.40;80.70;;;16.43;55.75;101009.81;5024254;28;20121;-77
2022/05/28 07:46:26;;;;;;;5.22;1.60;;;16.40;79.30;;;16.54;56.48;101003.25;5010849;28;20052;-77
2022/05/28 07:48:56;;;;;;;5.22;2.08;;;16.50;79.70;;;16.76;55.84;101000.59;5026395;28;20461;-78
2022/05/28 07:51:24;;;;;;;6.65;1.88;;;16.60;79.80;;;16.84;56.24;101002.97;5026010;28;20606;-77
2022/05/28 07:53:51;;;;;;;6.15;1.88;;;16.70;79.50;;;17.26;59.22;100996.84;5020097;28;20049;-76
2022/05/28 07:56:21;;;;;;;7.03;1.83;;;17.20;81.60;;;16.98;54.46;100999.72;5028344;28;20550;-77
2022/05/28 07:58:50;;;;;;;6.50;1.80;;;17.00;78.40;;;17.08;58.58;100987.84;5026809;28;20037;-78
2022/05/28 08:01:28;;;;;;;5.28;1.65;;;17.00;79.80;;;17.75;61.06;100990.34;5028696;28;20136;-78
2022/05/28 08:03:58;;;;;;;7.22;2.00;;;17.20;79.90;;;17.44;49.79;100999.66;5029432;28;20367;-79
2022/05/28 08:06:26;;;;;;;6.57;2.00;;;17.50;75.20;;;17.21;50.73;101001.47;5028336;28;20505;-78
2022/05/28 08:08:54;;;;;;;5.18;1.73;;;17.30;75.20;;;17.11;51.58;100997.50;5045612;28;20037;-76
2022/05/28 08:11:22;;;;;;;5.22;1.85;;;17.20;75.70;;;17.10;51.02;100999.25;5029081;28;20154;-76
2022/05/28 08:13:51;;;;;;;6.18;1.83;;;17.20;75.50;;;17.13;51.98;100993.81;5043216;28;20045;-77
2022/05/28 08:16:19;;;;;;;6.25;1.70;;;17.10;75.90;;;17.12;50.54;100983.25;5033565;28;20038;-77
2022/05/28 08:18:47;;;;;;;9.82;1.90;;;17.10;74.90;;;17.28;51.41;100986.13;5029503;28;20124;-78
2022/05/28 08:24:00;;;;;;;6.30;1.95;;;17.10;75.50;;;17.25;51.19;100984.47;5029325;28;20077;-78
2022/05/28 08:26:28;;;;;;;6.10;1.73;;;17.20;75.30;;;17.33;52.82;100984.16;5029844;28;20105;-79
2022/05/28 08:28:56;;;;;;;7.30;1.92;;;17.30;76.30;;;17.34;51.35;100982.34;5013753;28;20147;-77
2022/05/28 08:31:27;;;;;;;7.57;2.30;;;17.60;75.50;;;17.32;51.80;100987.72;4995263;28;20073;-78
2022/05/28 08:33:54;;;;;;;5.60;2.33;;;17.20;75.30;;;17.31;51.40;100980.66;5012318;28;20053;-78
2022/05/28 08:36:21;;;;;;;7.70;2.30;;;17.30;74.90;;;17.16;50.47;100974.22;5028582;28;20051;-78
2022/05/28 08:38:49;;;;;;;7.30;2.22;;;17.20;74.10;;;17.09;50.60;100973.63;5009272;28;20489;-78
2022/05/28 08:41:37;;;;;;;7.65;2.17;;;17.40;74.00;;;17.01;50.85;100975.72;5025728;28;20132;-78
2022/05/28 08:44:21;;;;;;;6.22;2.45;;;17.10;73.90;;;16.81;51.48;100981.84;5024833;28;20044;-78
2022/05/28 08:46:56;;;;;;;8.05;2.63;;;16.90;73.60;;;16.79;53.49;100973.06;5025547;28;20046;-77
2022/05/28 08:49:27;;;;;;;6.50;2.13;;;16.80;75.10;;;16.85;53.30;100978.97;5025173;28;20053;-77
2022/05/28 08:52:09;;;;;;;6.72;2.00;;;16.80;75.30;;;16.97;51.63;100967.00;4990473;28;20141;-79
2022/05/28 08:54:56;;;;;;;4.60;2.10;;;16.80;75.10;;;17.09;49.86;100970.94;5009471;28;20056;-82
2022/05/28 08:57:43;;;;;;;12.00;2.20;;;16.90;73.70;;;17.08;49.11;100965.69;5029307;28;20041;-82
2022/05/28 09:00:41;;;;;;;6.45;2.80;;;16.90;72.80;;;17.22;46.88;100959.81;5011452;28;20051;-80
2022/05/28 09:03:30;;;;;;;8.40;2.03;;;17.10;71.00;;;17.09;48.75;100962.97;4990111;28;20057;-80
2022/05/28 09:06:04;;;;;;;6.07;2.03;;;17.10;72.60;;;16.90;49.01;100960.19;5024399;28;20387;-77
2022/05/28 09:08:53;;;;;;;5.65;2.25;;;17.10;71.90;;;16.88;50.53;100964.69;5026225;28;20314;-79
2022/05/28 09:12:02;;;;;;;5.03;1.92;;;16.90;73.00;;;16.61;48.76;100967.53;5025812;28;20068;-77
2022/05/28 09:14:36;;;;;;;4.80;1.55;;;16.80;71.00;;;16.75;49.08;100961.69;5025155;28;20045;-77
2022/05/28 09:17:31;;;;;;;7.40;2.15;;;16.70;71.70;;;16.87;49.55;100955.88;5025705;28;20041;-77
2022/05/28 09:20:08;;;;;;;9.98;2.20;;;16.80;72.30;;;16.99;49.85;100967.81;5024544;28;20049;-77
2022/05/28 09:22:36;;;;;;;6.20;2.05;;;16.90;72.60;;;16.99;50.21;100943.88;5009403;28;20079;-77
2022/05/28 09:25:04;;;;;;;5.25;1.83;;;16.90;72.90;;;17.18;51.19;100953.75;5025040;28;20046;-77
2022/05/28 09:28:18;;;;;;;3.05;1.48;;;16.90;73.90;;;17.20;47.95;100943.06;5009291;28;20042;-77
2022/05/28 09:31:14;;;;;;;6.80;1.95;;;17.10;71.30;;;17.32;47.46;100952.28;5004101;28;20409;-76
2022/05/28 09:34:27;;;;;;;9.35;2.00;;;17.10;70.80;;;17.56;47.65;100932.63;5020708;28;20057;-76
2022/05/28 09:37:19;;;;;;;6.07;1.67;;;17.20;71.20;;;17.79;45.68;100924.50;5022076;28;20038;-76
2022/05/28 09:40:25;;;;;;;7.25;2.00;;;17.50;69.20;;;17.85;44.01;100926.91;5048902;28;20053;-75
2022/05/28 09:43:33;;;;;;;3.88;1.60;;;17.60;67.70;;;17.89;43.70;100932.97;5010520;28;20707;-77
2022/05/28 09:46:24;;;;;;;5.18;1.38;;;17.70;67.40;;;17.99;42.93;100924.47;5024137;28;20155;-78
2022/05/28 09:49:12;;;;;;;8.30;2.42;;;17.60;66.40;;;18.17;41.42;100929.03;5024066;28;20537;-80
2022/05/28 09:51:51;;;;;;;3.80;1.00;;;17.90;64.70;;;18.27;40.97;100922.34;5026397;28;20046;-77
2022/05/28 09:54:30;;;;;;;6.28;1.85;;;18.00;64.80;;;18.42;41.60;100923.41;5024643;28;20037;-77
2022/05/28 09:57:22;;;;;;;4.60;1.30;;;18.10;65.00;;;18.39;40.72;100921.75;5009060;28;20041;-77
2022/05/28 09:59:57;;;;;;;2.70;1.10;;;18.20;63.40;;;18.59;41.51;100917.25;5025544;28;20054;-78
2022/05/28 10:02:33;;;;;;;3.97;1.40;;;19.00;65.00;;;18.65;40.49;100911.59;5024399;28;20061;-76
2022/05/28 10:05:27;;;;;;;3.70;1.38;;;18.40;63.50;;;18.56;40.10;100904.94;5041097;28;20048;-77
2022/05/28 10:07:54;;;;;;;4.55;1.73;;;18.40;62.70;;;18.59;41.57;100919.91;5006805;28;20068;-77
2022/05/28 10:10:32;;;;;;;3.22;1.65;;;18.40;63.80;;;18.62;40.92;100914.44;5025744;28;20076;-76
2022/05/28 10:13:13;;;;;;;4.68;1.30;;;18.50;63.10;;;18.67;41.54;100915.09;5044874;28;20715;-78
2022/05/28 10:15:59;;;;;;;5.82;1.55;;;18.50;63.60;;;18.52;40.25;100905.19;5009374;28;20050;-78
2022/05/28 10:18:58;;;;;;;4.20;1.80;;;18.50;61.60;;;18.60;41.51;100902.97;5009752;28;20069;-81
2022/05/28 10:21:34;;;;;;;4.93;1.77;;;18.40;63.20;;;18.56;40.77;100904.09;5027463;28;20050;-80
2022/05/28 10:24:10;;;;;;;4.82;1.90;;;18.50;62.40;;;18.61;40.93;100898.53;5020743;28;20639;-78
2022/05/28 10:26:47;;;;;;;5.03;1.55;;;18.50;62.20;;;18.56;39.73;100907.59;5012290;28;20545;-80
2022/05/28 10:29:37;;;;;;;3.33;1.10;;;18.50;61.10;;;18.44;37.97;100908.22;5011042;28;20140;-79
2022/05/28 10:32:34;;;;;;;4.65;1.40;;;18.50;58.90;;;18.70;39.11;100901.59;5012560;28;20058;-79
2022/05/28 10:35:26;;;;;;;8.38;1.60;;;18.50;60.10;;;18.90;40.40;100899.72;5012427;28;20144;-79
2022/05/28 10:38:10;;;;;;;5.55;1.40;;;18.60;61.80;;;19.26;40.45;100888.13;5014772;28;20041;-81